Time;durP1;ratioP1;P1;durP2;ratioP2;P2;SDS_P1;SDS_P2;PMS_P1;PMS_P2;Temp;Humidity;BMP_temperature;BMP_pressure;BME280_temperature;BME280_humidity;BME280_pressure;Samples;Min_cycle;Max_cycle;Signal;HPM_P1;HPM_P2
2023/09/02 00:00:18;;;;;;;3.40;0.93;;;15.20;99.90;;;;;;4883141;29;20059;-65
2023/09/02 00:02:45;;;;;;;1.58;0.63;;;15.20;99.90;;;;;;4904381;29;20528;-69
2023/09/02 00:05:12;;;;;;;0.82;0.47;;;15.30;99.90;;;;;;4899636;29;20055;-68
2023/09/02 00:07:39;;;;;;;3.20;0.82;;;15.30;99.90;;;;;;4902006;29;20044;-69
2023/09/02 00:10:08;;;;;;;2.97;0.55;;;15.30;99.90;;;;;;4885770;29;20050;-66
2023/09/02 00:12:35;;;;;;;3.92;0.73;;;15.30;99.90;;;;;;4903438;29;20398;-68
2023/09/02 00:15:02;;;;;;;2.08;0.52;;;15.30;99.90;;;;;;4889374;29;20060;-65
2023/09/02 00:17:31;;;;;;;2.42;0.82;;;15.30;99.90;;;;;;4905338;29;20134;-69
2023/09/02 00:19:58;;;;;;;2.05;1.05;;;15.40;99.90;;;;;;4905606;29;20415;-69
2023/09/02 00:22:25;;;;;;;5.82;1.42;;;15.40;99.90;;;;;;4907471;29;20554;-70
2023/09/02 00:24:52;;;;;;;2.67;0.68;;;15.40;99.90;;;;;;4906577;29;20051;-69
2023/09/02 00:27:19;;;;;;;3.03;0.98;;;15.40;99.90;;;;;;4904869;29;20066;-66
2023/09/02 00:29:46;;;;;;;1.27;0.60;;;15.40;99.90;;;;;;4885479;29;20060;-65
2023/09/02 00:32:13;;;;;;;3.60;0.68;;;15.40;99.90;;;;;;4902181;29;20754;-68
2023/09/02 00:34:40;;;;;;;1.15;0.50;;;15.40;99.90;;;;;;4890926;29;20883;-69
2023/09/02 00:37:07;;;;;;;3.38;0.75;;;15.40;99.90;;;;;;4905746;29;20487;-65
2023/09/02 00:39:34;;;;;;;3.08;0.70;;;15.40;99.90;;;;;;4905524;29;20502;-65
2023/09/02 00:42:03;;;;;;;3.70;1.25;;;15.40;99.90;;;;;;4906937;29;20108;-69
2023/09/02 00:44:31;;;;;;;2.30;0.63;;;15.40;99.90;;;;;;4891436;29;20072;-66
2023/09/02 00:47:01;;;;;;;0.70;0.63;;;15.40;99.90;;;;;;4899926;29;20067;-65
2023/09/02 00:49:28;;;;;;;6.05;1.35;;;15.40;99.90;;;;;;4901245;29;20049;-66
2023/09/02 00:51:55;;;;;;;2.95;0.93;;;15.40;99.90;;;;;;4903168;29;20648;-69
2023/09/02 00:54:22;;;;;;;1.60;1.33;;;15.40;99.90;;;;;;4902038;29;20495;-66
2023/09/02 00:56:48;;;;;;;1.98;1.58;;;15.40;99.90;;;;;;4908954;29;20525;-65
2023/09/02 00:59:16;;;;;;;1.65;0.75;;;15.40;99.90;;;;;;4904743;29;20048;-68
2023/09/02 01:01:45;;;;;;;3.38;1.13;;;15.40;99.90;;;;;;4903722;29;20597;-67
2023/09/02 01:04:12;;;;;;;3.80;0.77;;;15.40;99.90;;;;;;4900011;29;20567;-71
2023/09/02 01:06:40;;;;;;;1.65;1.00;;;15.40;99.90;;;;;;4901361;29;20048;-69
2023/09/02 01:09:07;;;;;;;1.30;1.00;;;15.40;99.90;;;;;;4901434;29;20076;-73
2023/09/02 01:11:35;;;;;;;3.63;1.50;;;15.40;99.90;;;;;;4897830;29;20050;-67
2023/09/02 01:14:02;;;;;;;1.45;0.80;;;15.40;99.90;;;;;;4903734;29;20063;-66
2023/09/02 01:16:29;;;;;;;3.25;1.02;;;15.40;99.90;;;;;;4892537;29;20048;-69
2023/09/02 01:18:57;;;;;;;0.90;0.90;;;15.40;99.90;;;;;;4903344;29;20053;-69
2023/09/02 01:21:30;;;;;;;2.17;1.10;;;15.40;99.90;;;;;;4897241;29;20048;-68
2023/09/02 01:24:31;;;;;;;1.80;0.85;;;15.30;99.90;;;;;;4892080;29;20580;-66
2023/09/02 01:27:22;;;;;;;2.92;1.20;;;15.30;99.90;;;;;;4904173;29;20059;-68
2023/09/02 01:29:58;;;;;;;1.08;0.40;;;15.30;99.90;;;;;;4901739;29;20055;-68
2023/09/02 01:32:32;;;;;;;1.90;0.90;;;15.30;99.90;;;;;;4904831;29;20498;-67
2023/09/02 01:35:04;;;;;;;1.13;0.93;;;15.30;99.90;;;;;;4904647;29;20055;-71
2023/09/02 01:37:33;;;;;;;1.00;0.70;;;15.30;99.90;;;;;;4902585;29;20052;-67
2023/09/02 01:40:01;;;;;;;3.53;1.48;;;15.30;99.90;;;;;;4902906;29;20059;-66
2023/09/02 01:42:29;;;;;;;1.50;1.20;;;15.40;99.90;;;;;;4902205;29;20047;-66
2023/09/02 01:44:57;;;;;;;2.33;2.13;;;15.40;99.90;;;;;;4905069;29;20154;-70
2023/09/02 01:47:25;;;;;;;4.25;1.63;;;15.40;99.90;;;;;;4887325;29;20146;-67
2023/09/02 01:49:53;;;;;;;2.85;1.70;;;15.40;99.90;;;;;;4903737;29;20112;-66
2023/09/02 01:52:22;;;;;;;2.63;1.20;;;15.40;99.90;;;;;;4907690;29;20048;-66
2023/09/02 01:54:51;;;;;;;3.13;1.67;;;15.40;99.90;;;;;;4889035;29;20498;-66
2023/09/02 01:57:18;;;;;;;1.90;0.90;;;15.30;99.90;;;;;;4902369;29;20625;-68
2023/09/02 01:59:45;;;;;;;3.45;1.33;;;15.30;99.90;;;;;;4889204;29;20139;-68
2023/09/02 02:02:16;;;;;;;3.35;1.75;;;15.30;99.90;;;;;;4886441;29;20554;-67
2023/09/02 02:04:50;;;;;;;2.90;1.98;;;15.30;99.90;;;;;;4901787;29;20044;-68
2023/09/02 02:07:20;;;;;;;1.90;1.23;;;15.30;99.90;;;;;;4903174;29;20459;-66
2023/09/02 02:09:53;;;;;;;1.73;1.63;;;15.30;99.90;;;;;;4902386;29;20552;-72
2023/09/02 02:12:21;;;;;;;8.60;1.88;;;15.30;99.90;;;;;;4905604;29;20044;-66
2023/09/02 02:14:48;;;;;;;3.50;1.42;;;15.30;99.90;;;;;;4904055;29;20051;-65
2023/09/02 02:17:15;;;;;;;1.73;1.58;;;15.20;99.90;;;;;;4900689;29;20067;-66
2023/09/02 02:19:43;;;;;;;2.80;1.20;;;15.20;99.90;;;;;;4898369;29;20044;-67
2023/09/02 02:22:11;;;;;;;3.33;1.30;;;15.20;99.90;;;;;;4902671;29;20131;-70
2023/09/02 02:24:37;;;;;;;1.30;1.08;;;15.20;99.90;;;;;;4904830;29;20071;-67
2023/09/02 02:27:05;;;;;;;3.60;1.50;;;15.20;99.90;;;;;;4885845;29;20463;-70
2023/09/02 02:29:32;;;;;;;2.83;2.22;;;15.20;99.90;;;;;;4900649;29;20060;-68
2023/09/02 02:31:58;;;;;;;1.88;1.40;;;15.20;99.90;;;;;;4899966;29;20067;-67
2023/09/02 02:34:25;;;;;;;1.63;1.00;;;15.20;99.90;;;;;;4901683;29;20156;-66
2023/09/02 02:36:52;;;;;;;2.72;1.35;;;15.20;99.90;;;;;;4903091;29;20051;-67
2023/09/02 02:39:19;;;;;;;1.45;1.00;;;15.20;99.90;;;;;;4883695;29;20052;-65
2023/09/02 02:41:46;;;;;;;4.22;1.38;;;15.20;99.90;;;;;;4900792;29;20111;-67
2023/09/02 02:44:13;;;;;;;1.60;1.23;;;15.20;99.90;;;;;;4899827;29;20498;-68
2023/09/02 02:46:40;;;;;;;2.75;1.10;;;15.20;99.90;;;;;;4905996;29;20067;-66
2023/09/02 02:49:07;;;;;;;2.92;1.23;;;15.20;99.90;;;;;;4898834;29;20823;-67
2023/09/02 02:51:34;;;;;;;1.58;0.98;;;15.10;99.90;;;;;;4904354;29;20056;-67
2023/09/02 02:54:00;;;;;;;1.67;0.90;;;15.20;99.90;;;;;;4903982;29;20047;-69
2023/09/02 02:56:27;;;;;;;0.98;0.85;;;15.20;99.90;;;;;;4901491;29;20044;-66
2023/09/02 02:58:55;;;;;;;4.93;1.33;;;15.20;99.90;;;;;;4903097;29;20056;-67
2023/09/02 03:01:22;;;;;;;2.13;1.92;;;15.20;99.90;;;;;;4899505;29;20190;-71
2023/09/02 03:03:49;;;;;;;1.30;1.20;;;15.20;99.90;;;;;;4903666;29;20058;-66
2023/09/02 03:06:21;;;;;;;2.65;1.38;;;15.20;99.90;;;;;;4889571;29;20048;-66
2023/09/02 03:08:48;;;;;;;1.25;1.10;;;15.20;99.90;;;;;;4901077;29;20048;-65
2023/09/02 03:11:14;;;;;;;1.38;1.27;;;15.20;99.90;;;;;;4884844;29;20095;-66
2023/09/02 03:13:42;;;;;;;2.47;1.48;;;15.20;99.90;;;;;;4888964;29;20067;-71
2023/09/02 03:16:23;;;;;;;3.20;1.65;;;15.10;99.90;;;;;;4885829;29;20057;-66
2023/09/02 03:18:51;;;;;;;2.35;1.27;;;15.10;99.90;;;;;;4884918;29;20052;-65
2023/09/02 03:21:18;;;;;;;2.92;1.38;;;15.20;99.90;;;;;;4901748;29;20048;-70
2023/09/02 03:23:46;;;;;;;3.58;1.48;;;15.20;99.90;;;;;;4903363;29;20960;-68
2023/09/02 03:26:17;;;;;;;1.45;1.27;;;15.10;99.90;;;;;;4907366;29;20062;-67
2023/09/02 03:28:47;;;;;;;1.95;1.63;;;15.20;99.90;;;;;;4901533;29;20143;-66
2023/09/02 03:31:16;;;;;;;1.40;0.98;;;15.20;99.90;;;;;;4886245;29;20053;-66
2023/09/02 03:33:44;;;;;;;1.10;1.05;;;15.10;99.90;;;;;;4899938;29;20467;-66
2023/09/02 03:36:22;;;;;;;2.13;1.30;;;15.20;99.90;;;;;;4899809;29;20131;-67
2023/09/02 03:38:49;;;;;;;2.08;1.55;;;15.20;99.90;;;;;;4898686;29;20139;-67
2023/09/02 03:41:22;;;;;;;3.17;1.20;;;15.20;99.90;;;;;;4899836;29;20063;-65
2023/09/02 03:43:49;;;;;;;1.60;1.10;;;15.20;99.90;;;;;;4888438;29;20152;-67
2023/09/02 03:46:16;;;;;;;2.03;1.40;;;15.20;99.90;;;;;;4889035;29;20059;-66
2023/09/02 03:48:48;;;;;;;2.33;1.40;;;15.30;99.90;;;;;;4902406;29;20778;-66
2023/09/02 03:51:17;;;;;;;2.80;1.23;;;15.20;99.90;;;;;;4907685;29;20040;-67
2023/09/02 03:53:49;;;;;;;4.10;2.22;;;15.30;99.90;;;;;;4906258;29;20044;-66
2023/09/02 03:56:17;;;;;;;4.35;1.45;;;15.40;99.90;;;;;;4892286;29;20121;-66
2023/09/02 03:58:44;;;;;;;4.03;1.30;;;15.40;99.90;;;;;;4909210;29;20049;-70
2023/09/02 04:01:12;;;;;;;4.68;2.85;;;15.30;99.90;;;;;;4885689;29;20048;-68
2023/09/02 04:03:39;;;;;;;2.47;2.13;;;15.30;99.90;;;;;;4898538;29;20060;-66
2023/09/02 04:06:09;;;;;;;3.15;1.77;;;15.30;99.90;;;;;;4884781;29;20052;-66
2023/09/02 04:08:36;;;;;;;1.15;1.00;;;15.20;99.90;;;;;;4889438;29;20052;-66
2023/09/02 04:11:03;;;;;;;2.00;1.80;;;15.20;99.90;;;;;;4887272;29;20072;-67
2023/09/02 04:13:30;;;;;;;3.80;1.30;;;15.10;99.90;;;;;;4906016;29;20127;-66
2023/09/02 04:16:03;;;;;;;4.32;1.55;;;15.10;99.90;;;;;;4886292;29;20484;-65
2023/09/02 04:18:33;;;;;;;2.38;1.02;;;15.10;99.90;;;;;;4909867;29;20048;-65
2023/09/02 04:21:03;;;;;;;3.40;1.60;;;15.10;99.90;;;;;;4890870;29;20071;-69
2023/09/02 04:23:32;;;;;;;4.53;1.55;;;15.10;99.90;;;;;;4901722;29;20044;-66
2023/09/02 04:26:08;;;;;;;4.15;1.75;;;15.10;99.90;;;;;;4889311;29;20448;-68
2023/09/02 04:28:35;;;;;;;1.15;1.05;;;15.10;99.90;;;;;;4887316;29;20565;-66
2023/09/02 04:31:02;;;;;;;1.45;1.25;;;15.10;99.90;;;;;;4889815;29;20060;-66
2023/09/02 04:33:32;;;;;;;3.33;1.23;;;15.10;99.90;;;;;;4903345;29;20142;-66
2023/09/02 04:36:00;;;;;;;1.88;1.58;;;15.20;99.90;;;;;;4898639;29;20048;-69
2023/09/02 04:38:29;;;;;;;1.33;1.05;;;15.20;99.90;;;;;;4889832;29;20052;-65
2023/09/02 04:40:56;;;;;;;1.48;1.38;;;15.20;99.90;;;;;;4901956;29;20134;-66
2023/09/02 04:43:23;;;;;;;2.25;2.05;;;15.20;99.90;;;;;;4891112;29;20056;-70
2023/09/02 04:45:52;;;;;;;1.80;1.45;;;15.20;99.90;;;;;;4896298;29;20578;-67
2023/09/02 04:48:19;;;;;;;4.30;2.95;;;15.20;99.90;;;;;;4899923;29;20060;-67
2023/09/02 04:50:53;;;;;;;4.32;2.05;;;15.10;99.90;;;;;;4904784;29;20052;-73
2023/09/02 04:53:23;;;;;;;3.33;2.25;;;15.00;99.90;;;;;;4900563;29;20058;-67
2023/09/02 04:55:51;;;;;;;2.08;1.80;;;15.00;99.90;;;;;;4896384;29;20045;-67
2023/09/02 04:58:21;;;;;;;2.43;1.70;;;15.00;99.90;;;;;;4901652;29;20060;-68
2023/09/02 05:00:48;;;;;;;1.77;1.38;;;14.90;99.90;;;;;;4877157;29;20062;-69
2023/09/02 05:03:15;;;;;;;3.42;1.10;;;14.90;99.90;;;;;;4898937;29;20040;-65
2023/09/02 05:05:43;;;;;;;2.30;1.60;;;14.80;99.90;;;;;;4904648;29;20112;-69
2023/09/02 05:08:12;;;;;;;5.07;2.97;;;14.80;99.90;;;;;;4908041;29;20387;-70
2023/09/02 05:10:40;;;;;;;7.05;5.82;;;14.90;99.90;;;;;;4898070;29;20059;-70
2023/09/02 05:13:07;;;;;;;5.03;3.83;;;14.90;99.90;;;;;;4888763;29;20813;-68
2023/09/02 05:15:34;;;;;;;2.33;2.13;;;14.90;99.90;;;;;;4900167;29;20399;-67
2023/09/02 05:18:01;;;;;;;3.55;1.98;;;14.90;99.90;;;;;;4884696;29;20047;-65
2023/09/02 05:20:29;;;;;;;3.47;1.55;;;15.00;99.90;;;;;;4898475;29;20087;-69
2023/09/02 05:22:56;;;;;;;3.58;1.48;;;15.00;99.90;;;;;;4904477;29;20048;-68
2023/09/02 05:25:27;;;;;;;4.07;1.40;;;14.90;99.90;;;;;;4904902;29;20064;-73
2023/09/02 05:27:56;;;;;;;3.33;1.48;;;14.90;99.90;;;;;;4882508;29;20067;-66
2023/09/02 05:30:23;;;;;;;2.80;1.20;;;15.00;99.90;;;;;;4889199;29;20052;-70
2023/09/02 05:32:50;;;;;;;1.92;1.77;;;15.00;99.90;;;;;;4885518;29;20044;-68
2023/09/02 05:35:17;;;;;;;3.65;2.30;;;15.00;99.90;;;;;;4885898;29;20041;-68
2023/09/02 05:37:44;;;;;;;2.33;1.75;;;15.10;99.90;;;;;;4887353;29;20105;-65
2023/09/02 05:40:11;;;;;;;4.20;1.75;;;15.10;99.90;;;;;;4888035;29;20543;-71
2023/09/02 05:42:39;;;;;;;1.73;1.30;;;15.10;99.90;;;;;;4892454;29;20754;-67
2023/09/02 05:45:07;;;;;;;4.18;1.10;;;15.10;99.90;;;;;;4887465;29;20075;-69
2023/09/02 05:47:34;;;;;;;3.15;1.10;;;15.10;99.90;;;;;;4888946;29;20056;-71
2023/09/02 05:50:01;;;;;;;1.60;1.50;;;15.10;99.90;;;;;;4888455;29;20068;-68
2023/09/02 05:52:28;;;;;;;1.50;1.25;;;15.10;99.90;;;;;;4891625;29;20072;-68
2023/09/02 05:54:55;;;;;;;1.20;0.88;;;15.10;99.90;;;;;;4886543;29;20183;-71
2023/09/02 05:57:22;;;;;;;1.38;0.80;;;15.20;99.90;;;;;;4887426;29;20071;-68
2023/09/02 05:59:49;;;;;;;2.25;0.77;;;15.20;99.90;;;;;;4882847;29;20531;-71
2023/09/02 06:02:15;;;;;;;0.40;0.40;;;15.10;99.90;;;;;;4887448;29;20053;-69
2023/09/02 06:04:42;;;;;;;1.05;0.55;;;15.20;99.90;;;;;;4883720;29;20052;-70
2023/09/02 06:07:09;;;;;;;1.30;0.90;;;15.20;99.90;;;;;;4887425;29;20044;-71
2023/09/02 06:09:37;;;;;;;1.33;0.90;;;15.30;99.90;;;;;;4885225;29;20052;-72
2023/09/02 06:12:04;;;;;;;1.77;1.48;;;15.30;99.90;;;;;;4887349;29;20112;-67
2023/09/02 06:14:31;;;;;;;5.53;0.95;;;15.30;99.90;;;;;;4883493;29;20061;-70
2023/09/02 06:16:57;;;;;;;1.95;1.08;;;15.40;99.90;;;;;;4887232;29;20076;-70
2023/09/02 06:19:25;;;;;;;1.42;1.17;;;15.30;99.90;;;;;;4886994;29;20056;-69
2023/09/02 06:21:52;;;;;;;1.42;0.82;;;15.40;99.90;;;;;;4887312;29;20127;-70
2023/09/02 06:24:19;;;;;;;1.27;0.70;;;15.40;99.90;;;;;;4887300;29;20402;-72
2023/09/02 06:26:46;;;;;;;1.15;0.80;;;15.40;99.90;;;;;;4887145;29;20507;-70
2023/09/02 06:29:13;;;;;;;2.70;0.70;;;15.40;99.90;;;;;;4882735;29;20044;-68
2023/09/02 06:31:40;;;;;;;2.58;0.73;;;15.40;99.90;;;;;;4891645;29;20052;-70
2023/09/02 06:34:07;;;;;;;1.05;0.60;;;15.40;99.90;;;;;;4888903;29;20044;-69
2023/09/02 06:36:34;;;;;;;1.75;0.70;;;15.30;99.90;;;;;;4902466;29;20446;-67
2023/09/02 06:39:01;;;;;;;2.67;0.80;;;15.30;99.90;;;;;;4904603;29;20040;-66
2023/09/02 06:41:28;;;;;;;1.45;0.70;;;15.30;99.90;;;;;;4901295;29;20131;-69
2023/09/02 06:43:55;;;;;;;1.80;0.73;;;15.30;99.90;;;;;;4902431;29;20079;-70
2023/09/02 06:46:22;;;;;;;2.83;0.80;;;15.40;99.90;;;;;;4898198;29;20486;-68
2023/09/02 06:48:50;;;;;;;1.83;0.95;;;15.40;99.90;;;;;;4904892;29;20052;-68
2023/09/02 06:51:17;;;;;;;3.83;0.85;;;15.40;99.90;;;;;;4905142;29;20130;-68
2023/09/02 06:53:44;;;;;;;3.63;0.80;;;15.40;99.90;;;;;;4906602;29;20048;-66
2023/09/02 06:56:12;;;;;;;1.67;1.13;;;15.40;99.90;;;;;;4902130;29;20765;-69
2023/09/02 06:58:41;;;;;;;4.07;0.82;;;15.50;99.90;;;;;;4899941;29;20057;-70
2023/09/02 07:01:18;;;;;;;1.45;0.75;;;15.50;99.90;;;;;;4903405;29;20701;-68
2023/09/02 07:03:45;;;;;;;0.57;0.50;;;15.50;99.90;;;;;;4905700;29;20040;-66
2023/09/02 07:06:15;;;;;;;1.98;0.65;;;15.50;99.90;;;;;;4903093;29;20054;-70
2023/09/02 07:08:43;;;;;;;4.22;0.98;;;15.50;99.90;;;;;;4902470;29;20080;-70
2023/09/02 07:11:11;;;;;;;1.65;0.82;;;15.50;99.90;;;;;;4902813;29;20056;-67
2023/09/02 07:13:39;;;;;;;3.13;1.80;;;15.50;99.90;;;;;;4903781;29;20044;-69
2023/09/02 07:16:07;;;;;;;1.40;1.27;;;15.50;99.90;;;;;;4905066;29;20059;-67
2023/09/02 07:18:34;;;;;;;1.45;1.08;;;15.60;99.90;;;;;;4901304;29;20052;-68
2023/09/02 07:21:03;;;;;;;1.90;1.10;;;15.60;99.90;;;;;;4898010;29;20043;-67
2023/09/02 07:23:31;;;;;;;1.30;1.20;;;15.70;99.90;;;;;;4902184;29;20376;-68
2023/09/02 07:26:00;;;;;;;4.50;1.48;;;15.70;99.90;;;;;;4907427;29;20426;-68
2023/09/02 07:28:30;;;;;;;1.02;0.80;;;15.70;99.90;;;;;;4906543;29;20123;-67
2023/09/02 07:31:00;;;;;;;1.10;1.00;;;15.60;99.90;;;;;;4904096;29;20088;-70
2023/09/02 07:33:29;;;;;;;1.65;1.00;;;15.60;99.90;;;;;;4903253;29;20071;-67
2023/09/02 07:35:57;;;;;;;3.65;1.05;;;15.60;99.90;;;;;;4905030;29;20085;-68
2023/09/02 07:38:25;;;;;;;2.20;0.77;;;15.60;99.90;;;;;;4908355;29;20048;-66
2023/09/02 07:40:52;;;;;;;4.15;1.10;;;15.60;99.90;;;;;;4908653;29;20055;-70
2023/09/02 07:43:19;;;;;;;3.25;1.05;;;15.50;99.90;;;;;;4904745;29;20051;-66
2023/09/02 07:45:48;;;;;;;10.75;1.45;;;15.40;99.90;;;;;;4909157;29;20445;-68
2023/09/02 07:48:15;;;;;;;1.23;0.75;;;15.30;99.90;;;;;;4907535;29;20056;-69
2023/09/02 07:50:42;;;;;;;1.02;0.75;;;15.20;99.90;;;;;;4909924;29;20051;-72
2023/09/02 07:53:09;;;;;;;10.80;1.33;;;15.10;99.90;;;;;;4902957;29;20051;-68
2023/09/02 07:55:37;;;;;;;1.95;1.00;;;15.20;99.90;;;;;;4907754;29;20056;-68
2023/09/02 07:58:04;;;;;;;2.20;1.50;;;15.20;99.90;;;;;;4903263;29;20079;-66
2023/09/02 08:00:35;;;;;;;2.15;0.85;;;15.20;99.90;;;;;;4904019;29;20455;-68
2023/09/02 08:03:06;;;;;;;5.18;1.25;;;15.30;99.90;;;;;;4907266;29;20158;-70
2023/09/02 08:05:38;;;;;;;1.40;0.73;;;15.40;99.90;;;;;;4902851;29;20126;-68
2023/09/02 08:08:06;;;;;;;1.75;1.27;;;15.40;99.90;;;;;;4906826;29;20044;-66
2023/09/02 08:10:34;;;;;;;1.50;0.88;;;15.50;99.90;;;;;;4906177;29;20076;-66
2023/09/02 08:13:06;;;;;;;2.95;1.02;;;15.60;99.90;;;;;;4907502;29;20048;-66
2023/09/02 08:15:33;;;;;;;3.85;1.10;;;15.60;99.90;;;;;;4908054;29;20089;-66
2023/09/02 08:18:00;;;;;;;1.33;1.10;;;15.70;99.90;;;;;;4904650;29;20062;-69
2023/09/02 08:20:29;;;;;;;3.53;0.77;;;15.80;99.90;;;;;;4902645;29;20066;-66
2023/09/02 08:22:58;;;;;;;2.53;1.02;;;16.00;99.90;;;;;;4906029;29;20073;-69
2023/09/02 08:25:25;;;;;;;2.97;1.50;;;16.00;99.90;;;;;;4904409;29;20053;-70
2023/09/02 08:27:52;;;;;;;1.00;0.60;;;16.00;99.90;;;;;;4905368;29;20044;-69
2023/09/02 08:30:20;;;;;;;1.77;1.10;;;16.00;99.90;;;;;;4903595;29;20132;-69
2023/09/02 08:32:47;;;;;;;3.95;0.75;;;16.00;99.90;;;;;;4906144;29;20554;-68
2023/09/02 08:35:14;;;;;;;1.42;0.85;;;16.00;99.90;;;;;;4902485;29;20054;-72
2023/09/02 08:37:41;;;;;;;0.60;0.60;;;16.00;99.90;;;;;;4904962;29;20044;-67
2023/09/02 08:40:08;;;;;;;3.97;1.85;;;16.10;99.90;;;;;;4906046;29;20063;-67
2023/09/02 08:42:36;;;;;;;2.20;1.45;;;16.10;99.90;;;;;;4906811;29;20079;-66
2023/09/02 08:45:12;;;;;;;3.45;0.88;;;16.10;99.90;;;;;;4905476;29;20051;-69
2023/09/02 08:47:40;;;;;;;1.60;1.20;;;16.20;99.90;;;;;;4902195;29;20506;-70
2023/09/02 08:50:08;;;;;;;0.73;0.63;;;16.30;99.90;;;;;;4905876;29;20111;-70
2023/09/02 08:52:37;;;;;;;1.60;1.02;;;16.40;99.90;;;;;;4909133;29;20036;-65
2023/09/02 08:55:04;;;;;;;3.10;1.02;;;16.40;99.90;;;;;;4903875;29;20059;-67
2023/09/02 08:57:32;;;;;;;1.58;1.05;;;16.30;99.90;;;;;;4906062;29;20052;-67
2023/09/02 09:00:00;;;;;;;3.22;1.08;;;16.20;99.90;;;;;;4905583;29;20048;-67
2023/09/02 09:02:27;;;;;;;4.22;1.55;;;16.30;99.90;;;;;;4903032;29;20057;-71
2023/09/02 09:04:56;;;;;;;1.27;0.90;;;16.30;99.90;;;;;;4904856;29;20079;-66
2023/09/02 09:07:25;;;;;;;4.90;1.20;;;16.40;99.90;;;;;;4905809;29;20105;-68
2023/09/02 09:09:56;;;;;;;2.35;1.30;;;16.60;99.90;;;;;;4905281;29;20570;-68
2023/09/02 09:12:24;;;;;;;2.22;1.38;;;16.60;99.90;;;;;;4908154;29;20071;-67
2023/09/02 09:14:54;;;;;;;2.90;1.33;;;16.60;99.90;;;;;;4908253;29;20048;-68
2023/09/02 09:17:22;;;;;;;1.65;1.55;;;16.70;99.90;;;;;;4906886;29;20854;-67
2023/09/02 09:19:50;;;;;;;2.42;2.22;;;16.70;99.90;;;;;;4897883;29;20076;-67
2023/09/02 09:22:17;;;;;;;3.50;2.30;;;16.70;99.90;;;;;;4904089;29;20099;-75
2023/09/02 09:24:44;;;;;;;5.00;1.52;;;16.80;99.90;;;;;;4908972;29;20076;-66
2023/09/02 09:27:12;;;;;;;4.25;1.58;;;16.80;99.90;;;;;;4902698;29;20052;-72
2023/09/02 09:29:42;;;;;;;1.50;1.40;;;16.90;99.90;;;;;;4902671;29;20107;-69
2023/09/02 09:32:10;;;;;;;;;;;17.10;99.90;;;;;;4902687;29;20111;-69
2023/09/02 09:34:39;;;;;;;4.07;1.92;;;17.20;99.90;;;;;;4905521;29;20684;-69
2023/09/02 09:37:07;;;;;;;6.70;1.83;;;17.30;99.90;;;;;;4904115;29;20052;-68
2023/09/02 09:39:47;;;;;;;2.33;2.05;;;17.50;99.90;;;;;;4904705;29;20045;-69
2023/09/02 09:42:15;;;;;;;3.25;1.63;;;17.50;99.90;;;;;;4904050;29;20055;-69
2023/09/02 09:45:08;;;;;;;5.50;1.85;;;17.40;99.90;;;;;;4907278;29;20043;-66
2023/09/02 09:47:35;;;;;;;1.73;1.63;;;17.40;99.90;;;;;;4901627;29;20067;-68
2023/09/02 09:50:16;;;;;;;1.70;1.60;;;17.40;99.90;;;;;;4902141;29;20711;-66
2023/09/02 09:53:01;;;;;;;2.97;1.67;;;17.30;99.90;;;;;;4905200;29;20490;-69
2023/09/02 09:55:29;;;;;;;1.67;1.55;;;17.20;99.90;;;;;;4903026;29;20053;-66
2023/09/02 09:57:59;;;;;;;2.63;1.60;;;17.20;99.90;;;;;;4907207;29;20091;-68
2023/09/02 10:00:27;;;;;;;;;;;17.10;99.90;;;;;;4908272;29;20055;-70
2023/09/02 10:02:56;;;;;;;4.43;2.47;;;17.00;99.90;;;;;;4903173;29;20054;-66
2023/09/02 10:05:31;;;;;;;2.45;2.17;;;17.20;99.90;;;;;;4901719;29;20049;-66
2023/09/02 10:08:07;;;;;;;7.32;2.63;;;17.20;99.90;;;;;;4906034;29;20167;-65
2023/09/02 10:10:35;;;;;;;3.92;2.28;;;17.30;99.90;;;;;;4904672;29;20052;-73
2023/09/02 10:13:03;;;;;;;5.70;2.75;;;17.40;99.90;;;;;;4903732;29;20052;-67
2023/09/02 10:15:31;;;;;;;2.05;1.95;;;17.40;99.90;;;;;;4906266;29;20044;-68
2023/09/02 10:18:00;;;;;;;3.58;1.98;;;17.40;99.90;;;;;;4903525;29;20064;-69
2023/09/02 10:20:29;;;;;;;2.67;2.22;;;17.50;99.90;;;;;;4901917;29;20048;-66
2023/09/02 10:23:05;;;;;;;4.10;2.13;;;17.60;99.90;;;;;;4903619;29;20076;-66
2023/09/02 10:26:15;;;;;;;4.35;2.05;;;17.60;99.90;;;;;;4892401;29;20064;-65
2023/09/02 10:28:43;;;;;;;3.10;2.10;;;17.60;99.90;;;;;;4902607;29;20068;-72
2023/09/02 10:31:17;;;;;;;2.70;1.67;;;17.50;99.90;;;;;;4903662;29;20064;-69
2023/09/02 10:33:49;;;;;;;2.28;2.03;;;17.40;99.90;;;;;;4907209;29;20136;-68
2023/09/02 10:36:21;;;;;;;5.18;3.40;;;17.50;99.90;;;;;;4902753;29;20048;-67
2023/09/02 10:38:50;;;;;;;3.85;2.42;;;17.60;99.90;;;;;;4901988;29;20055;-66
2023/09/02 10:41:17;;;;;;;4.00;1.58;;;17.70;99.90;;;;;;4899522;29;20051;-66
2023/09/02 10:43:46;;;;;;;3.63;2.10;;;17.70;99.90;;;;;;4893607;29;20052;-71
2023/09/02 10:46:13;;;;;;;3.03;2.03;;;17.70;99.90;;;;;;4904035;29;20139;-66
2023/09/02 10:48:44;;;;;;;3.40;1.98;;;17.80;99.90;;;;;;4900397;29;20084;-66
2023/09/02 10:51:12;;;;;;;3.95;1.75;;;17.80;99.90;;;;;;4903238;29;20071;-68
2023/09/02 10:53:50;;;;;;;1.85;1.60;;;17.90;99.90;;;;;;4903870;29;20052;-68
2023/09/02 10:56:34;;;;;;;4.55;1.73;;;17.90;99.90;;;;;;4905658;29;20071;-67
2023/09/02 10:59:06;;;;;;;3.00;1.63;;;18.00;99.90;;;;;;4902060;29;20104;-66
2023/09/02 11:01:47;;;;;;;2.55;1.92;;;18.10;99.90;;;;;;4906596;29;20053;-66
2023/09/02 11:04:34;;;;;;;2.42;1.70;;;18.20;99.90;;;;;;4901064;29;20123;-66
2023/09/02 11:07:19;;;;;;;4.82;1.95;;;18.30;99.90;;;;;;4902898;29;20136;-70
2023/09/02 11:09:57;;;;;;;2.70;1.75;;;18.40;99.90;;;;;;4907181;29;20051;-66
2023/09/02 11:12:24;;;;;;;3.03;2.30;;;18.50;99.90;;;;;;4907622;29;20071;-66
2023/09/02 11:15:11;;;;;;;3.55;2.15;;;18.60;99.90;;;;;;4904516;29;20068;-68
2023/09/02 11:17:40;;;;;;;5.32;2.20;;;18.60;99.90;;;;;;4904673;29;20048;-68
2023/09/02 11:20:15;;;;;;;6.75;2.00;;;18.40;99.90;;;;;;4905162;29;20052;-67
2023/09/02 11:22:45;;;;;;;5.50;2.25;;;18.50;99.90;;;;;;4900633;29;21034;-69
2023/09/02 11:25:26;;;;;;;2.97;2.20;;;18.50;99.90;;;;;;4901831;29;20099;-66
2023/09/02 11:27:55;;;;;;;2.72;1.95;;;18.50;99.90;;;;;;4905884;29;20054;-66
2023/09/02 11:30:28;;;;;;;2.08;1.67;;;18.50;99.90;;;;;;4903519;29;20078;-66
2023/09/02 11:32:57;;;;;;;2.83;2.30;;;18.40;99.90;;;;;;4904177;29;20064;-66
2023/09/02 11:35:32;;;;;;;1.83;1.70;;;18.40;99.90;;;;;;4903798;29;20123;-69
2023/09/02 11:38:00;;;;;;;2.22;1.63;;;18.50;99.90;;;;;;4898684;29;20072;-66
2023/09/02 11:40:28;;;;;;;1.83;1.60;;;18.60;99.90;;;;;;4904987;29;20056;-68
2023/09/02 11:43:00;;;;;;;5.70;2.53;;;18.70;99.90;;;;;;4906418;29;20601;-70
2023/09/02 11:45:30;;;;;;;3.25;1.67;;;18.90;99.90;;;;;;4901337;29;20139;-68
2023/09/02 11:47:57;;;;;;;3.78;1.70;;;19.00;99.90;;;;;;4899613;29;20535;-72
2023/09/02 11:50:24;;;;;;;1.75;1.58;;;18.80;99.90;;;;;;4903175;29;20103;-71
2023/09/02 11:52:53;;;;;;;1.73;1.35;;;18.80;99.90;;;;;;4904065;29;20059;-66
2023/09/02 11:55:21;;;;;;;2.10;1.83;;;19.00;99.90;;;;;;4902632;29;20669;-66
2023/09/02 11:57:48;;;;;;;1.73;1.55;;;19.00;99.90;;;;;;4906118;29;20455;-68
2023/09/02 12:00:20;;;;;;;4.38;1.73;;;19.20;99.90;;;;;;4904597;29;20123;-67
2023/09/02 12:02:48;;;;;;;2.38;2.25;;;19.30;99.90;;;;;;4905508;29;20070;-66
2023/09/02 12:05:16;;;;;;;2.15;1.77;;;19.20;99.90;;;;;;4903633;29;20716;-65
2023/09/02 12:07:45;;;;;;;2.67;2.00;;;19.20;99.90;;;;;;4908529;29;20182;-66
2023/09/02 12:10:16;;;;;;;2.60;1.83;;;19.20;99.90;;;;;;4908910;29;20745;-68
2023/09/02 12:12:48;;;;;;;3.22;1.70;;;19.10;99.90;;;;;;4911181;29;20044;-66
2023/09/02 12:15:19;;;;;;;2.92;1.90;;;19.00;99.90;;;;;;4907339;29;20488;-70
2023/09/02 12:17:47;;;;;;;2.83;1.63;;;19.00;99.90;;;;;;4907932;29;20130;-72
2023/09/02 12:20:16;;;;;;;2.22;1.67;;;18.90;99.90;;;;;;4903408;29;20131;-65
2023/09/02 12:22:44;;;;;;;2.97;1.95;;;18.90;99.90;;;;;;4902278;29;20059;-70
2023/09/02 12:25:21;;;;;;;2.00;1.80;;;18.90;99.90;;;;;;4903955;29;20562;-71
2023/09/02 12:27:49;;;;;;;2.03;1.77;;;19.00;99.90;;;;;;4905882;29;20049;-68
2023/09/02 12:30:28;;;;;;;5.00;2.20;;;18.90;99.90;;;;;;4904705;29;20049;-70
2023/09/02 12:32:58;;;;;;;2.17;1.65;;;19.00;99.90;;;;;;4904848;29;20060;-69
2023/09/02 12:35:25;;;;;;;4.63;3.80;;;19.10;99.90;;;;;;4908538;29;20486;-66
2023/09/02 12:38:05;;;;;;;2.47;1.67;;;19.10;99.90;;;;;;4908715;29;20044;-67
2023/09/02 12:40:33;;;;;;;4.13;2.05;;;19.20;99.90;;;;;;4905861;29;20048;-67
2023/09/02 12:43:00;;;;;;;3.08;1.50;;;19.40;99.90;;;;;;4906029;29;20162;-68
2023/09/02 12:45:28;;;;;;;1.98;1.52;;;19.40;99.90;;;;;;4908689;29;20071;-66
2023/09/02 12:47:59;;;;;;;1.77;1.67;;;19.60;99.90;;;;;;4906920;29;20770;-66
2023/09/02 12:50:27;;;;;;;2.67;1.27;;;19.70;99.90;;;;;;4905924;29;20055;-67
2023/09/02 12:53:01;;;;;;;1.55;1.15;;;19.60;99.90;;;;;;4908056;29;20059;-68
2023/09/02 12:55:29;;;;;;;3.33;1.65;;;19.50;99.90;;;;;;4908271;29;20131;-65
2023/09/02 12:57:56;;;;;;;1.80;1.48;;;19.40;99.90;;;;;;4910820;29;20056;-66